sensor_id;sensor_type;location;lat;lon;timestamp;temperature;humidity
53926;DHT22;39836;52.754;6.866;2022-10-14T00:00:40;12.50;82.10
53926;DHT22;39836;52.754;6.866;2022-10-14T00:03:07;12.60;82.10
53926;DHT22;39836;52.754;6.866;2022-10-14T00:05:33;12.60;82.10
53926;DHT22;39836;52.754;6.866;2022-10-14T00:07:58;12.60;82.10
53926;DHT22;39836;52.754;6.866;2022-10-14T00:10:24;12.50;82.10
53926;DHT22;39836;52.754;6.866;2022-10-14T00:12:50;12.60;82.10
53926;DHT22;39836;52.754;6.866;2022-10-14T00:15:16;12.60;82.10
53926;DHT22;39836;52.754;6.866;2022-10-14T00:17:42;12.50;82.10
53926;DHT22;39836;52.754;6.866;2022-10-14T00:20:08;12.50;82.10
53926;DHT22;39836;52.754;6.866;2022-10-14T00:22:34;12.50;82.10
53926;DHT22;39836;52.754;6.866;2022-10-14T00:24:59;12.50;82.10
53926;DHT22;39836;52.754;6.866;2022-10-14T00:27:25;12.50;82.10
53926;DHT22;39836;52.754;6.866;2022-10-14T00:29:51;12.50;82.10
53926;DHT22;39836;52.754;6.866;2022-10-14T00:32:16;12.50;82.10
53926;DHT22;39836;52.754;6.866;2022-10-14T00:34:42;12.50;82.10
53926;DHT22;39836;52.754;6.866;2022-10-14T00:37:08;12.50;82.10
53926;DHT22;39836;52.754;6.866;2022-10-14T00:39:33;12.50;82.10
53926;DHT22;39836;52.754;6.866;2022-10-14T00:41:59;12.50;82.10
53926;DHT22;39836;52.754;6.866;2022-10-14T00:46:50;12.50;82.10
53926;DHT22;39836;52.754;6.866;2022-10-14T00:51:52;12.40;82.00
53926;DHT22;39836;52.754;6.866;2022-10-14T00:54:23;12.40;82.00
53926;DHT22;39836;52.754;6.866;2022-10-14T00:56:50;12.50;82.00
53926;DHT22;39836;52.754;6.866;2022-10-14T00:59:16;12.40;82.00
53926;DHT22;39836;52.754;6.866;2022-10-14T01:01:43;12.40;82.00
53926;DHT22;39836;52.754;6.866;2022-10-14T01:04:09;12.40;82.00
53926;DHT22;39836;52.754;6.866;2022-10-14T01:09:30;12.30;81.90
53926;DHT22;39836;52.754;6.866;2022-10-14T01:12:17;12.20;81.90
53926;DHT22;39836;52.754;6.866;2022-10-14T01:14:47;12.20;81.90
53926;DHT22;39836;52.754;6.866;2022-10-14T01:23:06;11.90;81.70
53926;DHT22;39836;52.754;6.866;2022-10-14T01:28:38;11.80;81.70
53926;DHT22;39836;52.754;6.866;2022-10-14T01:31:10;11.70;81.60
53926;DHT22;39836;52.754;6.866;2022-10-14T01:33:42;11.70;81.60
53926;DHT22;39836;52.754;6.866;2022-10-14T01:38:44;11.60;81.60
53926;DHT22;39836;52.754;6.866;2022-10-14T01:41:24;11.60;81.60
53926;DHT22;39836;52.754;6.866;2022-10-14T01:43:53;11.50;81.60
53926;DHT22;39836;52.754;6.866;2022-10-14T01:46:22;11.60;81.60
53926;DHT22;39836;52.754;6.866;2022-10-14T01:48:53;11.60;81.60
53926;DHT22;39836;52.754;6.866;2022-10-14T01:51:27;11.50;81.60
53926;DHT22;39836;52.754;6.866;2022-10-14T01:54:13;11.50;81.60
53926;DHT22;39836;52.754;6.866;2022-10-14T01:56:41;11.50;81.60
53926;DHT22;39836;52.754;6.866;2022-10-14T01:59:11;11.50;81.70
53926;DHT22;39836;52.754;6.866;2022-10-14T02:01:38;11.50;81.70
53926;DHT22;39836;52.754;6.866;2022-10-14T02:04:16;11.50;81.70
53926;DHT22;39836;52.754;6.866;2022-10-14T02:06:50;11.50;81.70
53926;DHT22;39836;52.754;6.866;2022-10-14T02:09:37;11.50;81.70
53926;DHT22;39836;52.754;6.866;2022-10-14T02:17:30;11.40;81.80
53926;DHT22;39836;52.754;6.866;2022-10-14T02:20:07;11.40;81.70
53926;DHT22;39836;52.754;6.866;2022-10-14T02:22:41;11.40;81.70
53926;DHT22;39836;52.754;6.866;2022-10-14T02:25:21;11.30;81.70
53926;DHT22;39836;52.754;6.866;2022-10-14T02:27:48;11.30;81.70
53926;DHT22;39836;52.754;6.866;2022-10-14T02:30:16;11.20;81.70
53926;DHT22;39836;52.754;6.866;2022-10-14T02:32:43;11.20;81.70
53926;DHT22;39836;52.754;6.866;2022-10-14T02:35:10;11.10;81.70
53926;DHT22;39836;52.754;6.866;2022-10-14T02:37:37;11.20;81.70
53926;DHT22;39836;52.754;6.866;2022-10-14T02:40:13;11.20;81.70
53926;DHT22;39836;52.754;6.866;2022-10-14T02:42:40;11.20;81.70
53926;DHT22;39836;52.754;6.866;2022-10-14T02:45:07;11.20;81.70
53926;DHT22;39836;52.754;6.866;2022-10-14T02:47:33;11.20;81.70
53926;DHT22;39836;52.754;6.866;2022-10-14T02:49:59;11.20;81.70
53926;DHT22;39836;52.754;6.866;2022-10-14T02:52:24;11.10;81.70
53926;DHT22;39836;52.754;6.866;2022-10-14T02:54:50;11.10;81.70
53926;DHT22;39836;52.754;6.866;2022-10-14T02:57:16;11.10;81.70
53926;DHT22;39836;52.754;6.866;2022-10-14T02:59:41;11.10;81.70
53926;DHT22;39836;52.754;6.866;2022-10-14T03:02:07;11.10;81.70
53926;DHT22;39836;52.754;6.866;2022-10-14T03:04:33;11.10;81.70
53926;DHT22;39836;52.754;6.866;2022-10-14T03:06:59;11.10;81.70
53926;DHT22;39836;52.754;6.866;2022-10-14T03:09:25;11.10;81.70
53926;DHT22;39836;52.754;6.866;2022-10-14T03:11:51;11.10;81.70
53926;DHT22;39836;52.754;6.866;2022-10-14T03:14:16;11.10;81.70
53926;DHT22;39836;52.754;6.866;2022-10-14T03:16:42;11.10;81.70
53926;DHT22;39836;52.754;6.866;2022-10-14T03:19:09;11.10;81.70
53926;DHT22;39836;52.754;6.866;2022-10-14T03:21:35;11.10;81.80
53926;DHT22;39836;52.754;6.866;2022-10-14T03:24:00;11.10;81.80
53926;DHT22;39836;52.754;6.866;2022-10-14T03:26:27;11.10;81.80
53926;DHT22;39836;52.754;6.866;2022-10-14T03:28:52;11.20;81.80
53926;DHT22;39836;52.754;6.866;2022-10-14T03:31:18;11.20;81.80
53926;DHT22;39836;52.754;6.866;2022-10-14T03:33:44;11.20;81.80
53926;DHT22;39836;52.754;6.866;2022-10-14T03:36:09;11.20;81.80
53926;DHT22;39836;52.754;6.866;2022-10-14T03:38:36;11.30;81.80
53926;DHT22;39836;52.754;6.866;2022-10-14T03:41:02;11.20;81.80
53926;DHT22;39836;52.754;6.866;2022-10-14T03:43:28;11.30;81.80
53926;DHT22;39836;52.754;6.866;2022-10-14T03:45:54;11.30;81.80
53926;DHT22;39836;52.754;6.866;2022-10-14T03:48:19;11.30;81.80
53926;DHT22;39836;52.754;6.866;2022-10-14T03:50:48;11.30;81.80
53926;DHT22;39836;52.754;6.866;2022-10-14T03:53:14;11.30;81.80
53926;DHT22;39836;52.754;6.866;2022-10-14T03:55:40;11.30;81.80
53926;DHT22;39836;52.754;6.866;2022-10-14T03:58:05;11.30;81.80
53926;DHT22;39836;52.754;6.866;2022-10-14T04:00:32;11.40;81.80
53926;DHT22;39836;52.754;6.866;2022-10-14T04:03:00;11.30;81.80
53926;DHT22;39836;52.754;6.866;2022-10-14T04:05:26;11.40;81.80
53926;DHT22;39836;52.754;6.866;2022-10-14T04:07:56;11.30;81.80
53926;DHT22;39836;52.754;6.866;2022-10-14T04:10:22;11.40;81.80
53926;DHT22;39836;52.754;6.866;2022-10-14T04:12:48;11.40;81.80
53926;DHT22;39836;52.754;6.866;2022-10-14T04:15:15;11.40;81.80
53926;DHT22;39836;52.754;6.866;2022-10-14T04:17:41;11.40;81.80
53926;DHT22;39836;52.754;6.866;2022-10-14T04:20:07;11.40;81.80
53926;DHT22;39836;52.754;6.866;2022-10-14T04:22:33;11.40;81.80
53926;DHT22;39836;52.754;6.866;2022-10-14T04:24:59;11.40;81.80
53926;DHT22;39836;52.754;6.866;2022-10-14T04:27:24;11.40;81.80
53926;DHT22;39836;52.754;6.866;2022-10-14T04:29:50;11.40;81.80
53926;DHT22;39836;52.754;6.866;2022-10-14T04:32:17;11.40;81.80
53926;DHT22;39836;52.754;6.866;2022-10-14T04:34:43;11.40;81.80
53926;DHT22;39836;52.754;6.866;2022-10-14T04:37:09;11.40;81.80
53926;DHT22;39836;52.754;6.866;2022-10-14T04:39:35;11.40;81.80
53926;DHT22;39836;52.754;6.866;2022-10-14T04:42:00;11.40;81.80
53926;DHT22;39836;52.754;6.866;2022-10-14T04:44:26;11.40;81.80
53926;DHT22;39836;52.754;6.866;2022-10-14T04:46:52;11.40;81.80
53926;DHT22;39836;52.754;6.866;2022-10-14T04:49:17;11.40;81.80
53926;DHT22;39836;52.754;6.866;2022-10-14T04:51:43;11.40;81.80
53926;DHT22;39836;52.754;6.866;2022-10-14T04:54:09;11.40;81.80
53926;DHT22;39836;52.754;6.866;2022-10-14T04:56:35;11.40;81.80
53926;DHT22;39836;52.754;6.866;2022-10-14T04:59:00;11.40;81.80
53926;DHT22;39836;52.754;6.866;2022-10-14T05:01:26;11.40;81.80
53926;DHT22;39836;52.754;6.866;2022-10-14T05:03:52;11.30;81.80
53926;DHT22;39836;52.754;6.866;2022-10-14T05:06:17;11.30;81.80
53926;DHT22;39836;52.754;6.866;2022-10-14T05:08:43;11.30;81.80
53926;DHT22;39836;52.754;6.866;2022-10-14T05:11:09;11.30;81.70
53926;DHT22;39836;52.754;6.866;2022-10-14T05:13:34;11.30;81.70
53926;DHT22;39836;52.754;6.866;2022-10-14T05:16:01;11.30;81.70
53926;DHT22;39836;52.754;6.866;2022-10-14T05:18:27;11.40;81.70
53926;DHT22;39836;52.754;6.866;2022-10-14T05:20:53;11.40;81.70
53926;DHT22;39836;52.754;6.866;2022-10-14T05:23:19;11.30;81.70
53926;DHT22;39836;52.754;6.866;2022-10-14T05:25:44;11.30;81.70
53926;DHT22;39836;52.754;6.866;2022-10-14T05:28:10;11.30;81.60
53926;DHT22;39836;52.754;6.866;2022-10-14T05:30:36;11.20;81.60
53926;DHT22;39836;52.754;6.866;2022-10-14T05:33:01;11.20;81.50
53926;DHT22;39836;52.754;6.866;2022-10-14T05:35:27;11.10;81.50
53926;DHT22;39836;52.754;6.866;2022-10-14T05:37:54;11.10;81.50
53926;DHT22;39836;52.754;6.866;2022-10-14T05:40:23;11.10;81.50
53926;DHT22;39836;52.754;6.866;2022-10-14T05:42:49;11.00;81.50
53926;DHT22;39836;52.754;6.866;2022-10-14T05:45:15;11.00;81.50
53926;DHT22;39836;52.754;6.866;2022-10-14T05:47:44;11.00;81.50
53926;DHT22;39836;52.754;6.866;2022-10-14T05:50:10;10.90;81.50
53926;DHT22;39836;52.754;6.866;2022-10-14T05:52:36;11.00;81.60
53926;DHT22;39836;52.754;6.866;2022-10-14T05:55:04;11.00;81.60
53926;DHT22;39836;52.754;6.866;2022-10-14T05:57:30;11.00;81.70
53926;DHT22;39836;52.754;6.866;2022-10-14T05:59:58;11.00;81.70
53926;DHT22;39836;52.754;6.866;2022-10-14T06:02:24;11.00;81.70
53926;DHT22;39836;52.754;6.866;2022-10-14T06:04:49;11.00;81.60
53926;DHT22;39836;52.754;6.866;2022-10-14T06:07:15;11.00;81.60
53926;DHT22;39836;52.754;6.866;2022-10-14T06:09:41;11.00;81.60
53926;DHT22;39836;52.754;6.866;2022-10-14T06:12:07;11.00;81.60
53926;DHT22;39836;52.754;6.866;2022-10-14T06:14:33;11.00;81.60
53926;DHT22;39836;52.754;6.866;2022-10-14T06:16:58;11.00;81.70
53926;DHT22;39836;52.754;6.866;2022-10-14T06:19:24;11.00;81.60
53926;DHT22;39836;52.754;6.866;2022-10-14T06:21:49;11.00;81.60
53926;DHT22;39836;52.754;6.866;2022-10-14T06:24:15;11.00;81.60
53926;DHT22;39836;52.754;6.866;2022-10-14T06:26:41;11.00;81.60
53926;DHT22;39836;52.754;6.866;2022-10-14T06:29:06;11.00;81.60
53926;DHT22;39836;52.754;6.866;2022-10-14T06:31:32;11.00;81.60
53926;DHT22;39836;52.754;6.866;2022-10-14T06:33:58;11.00;81.60
53926;DHT22;39836;52.754;6.866;2022-10-14T06:36:25;11.10;81.60
53926;DHT22;39836;52.754;6.866;2022-10-14T06:38:51;11.10;81.60
53926;DHT22;39836;52.754;6.866;2022-10-14T06:41:16;11.10;81.60
53926;DHT22;39836;52.754;6.866;2022-10-14T06:43:42;11.10;81.60
53926;DHT22;39836;52.754;6.866;2022-10-14T06:46:08;11.10;81.60
53926;DHT22;39836;52.754;6.866;2022-10-14T06:48:34;11.20;81.60
53926;DHT22;39836;52.754;6.866;2022-10-14T06:51:00;11.10;81.60
53926;DHT22;39836;52.754;6.866;2022-10-14T06:53:27;11.20;81.60
53926;DHT22;39836;52.754;6.866;2022-10-14T06:56:05;11.20;81.60
53926;DHT22;39836;52.754;6.866;2022-10-14T06:58:32;11.20;81.60
53926;DHT22;39836;52.754;6.866;2022-10-14T07:01:03;11.20;81.60
53926;DHT22;39836;52.754;6.866;2022-10-14T07:03:29;11.30;81.60
53926;DHT22;39836;52.754;6.866;2022-10-14T07:05:55;11.30;81.60
53926;DHT22;39836;52.754;6.866;2022-10-14T07:08:21;11.40;81.70
53926;DHT22;39836;52.754;6.866;2022-10-14T07:10:47;11.40;81.60
53926;DHT22;39836;52.754;6.866;2022-10-14T07:13:13;11.40;81.60
53926;DHT22;39836;52.754;6.866;2022-10-14T07:15:38;11.40;81.60
53926;DHT22;39836;52.754;6.866;2022-10-14T07:18:05;11.50;81.70
53926;DHT22;39836;52.754;6.866;2022-10-14T07:20:32;11.50;81.60
53926;DHT22;39836;52.754;6.866;2022-10-14T07:22:58;11.50;81.60
53926;DHT22;39836;52.754;6.866;2022-10-14T07:25:23;11.50;81.60
53926;DHT22;39836;52.754;6.866;2022-10-14T07:27:51;11.50;81.60
53926;DHT22;39836;52.754;6.866;2022-10-14T07:30:17;11.60;81.60
53926;DHT22;39836;52.754;6.866;2022-10-14T07:32:43;11.60;81.50
53926;DHT22;39836;52.754;6.866;2022-10-14T07:35:09;11.60;81.50
53926;DHT22;39836;52.754;6.866;2022-10-14T07:37:35;11.60;81.50
53926;DHT22;39836;52.754;6.866;2022-10-14T07:40:00;11.60;81.50
53926;DHT22;39836;52.754;6.866;2022-10-14T07:42:26;11.50;81.40
53926;DHT22;39836;52.754;6.866;2022-10-14T07:44:52;11.60;81.40
53926;DHT22;39836;52.754;6.866;2022-10-14T07:47:19;11.60;81.40
53926;DHT22;39836;52.754;6.866;2022-10-14T07:49:45;11.60;81.50
53926;DHT22;39836;52.754;6.866;2022-10-14T07:52:11;11.60;81.60
53926;DHT22;39836;52.754;6.866;2022-10-14T07:54:37;11.70;81.70
53926;DHT22;39836;52.754;6.866;2022-10-14T07:57:03;11.70;81.60
53926;DHT22;39836;52.754;6.866;2022-10-14T07:59:29;11.70;81.70
53926;DHT22;39836;52.754;6.866;2022-10-14T08:01:55;11.80;81.70
53926;DHT22;39836;52.754;6.866;2022-10-14T08:04:21;11.80;81.70
53926;DHT22;39836;52.754;6.866;2022-10-14T08:06:48;11.80;81.70
53926;DHT22;39836;52.754;6.866;2022-10-14T08:09:14;11.90;81.70
53926;DHT22;39836;52.754;6.866;2022-10-14T08:11:42;11.90;81.70
53926;DHT22;39836;52.754;6.866;2022-10-14T08:14:07;11.90;81.70
53926;DHT22;39836;52.754;6.866;2022-10-14T08:16:34;11.90;81.70
53926;DHT22;39836;52.754;6.866;2022-10-14T08:19:03;11.90;81.70
53926;DHT22;39836;52.754;6.866;2022-10-14T08:21:29;12.00;81.80
53926;DHT22;39836;52.754;6.866;2022-10-14T08:23:54;12.00;81.80
53926;DHT22;39836;52.754;6.866;2022-10-14T08:26:26;12.00;81.80
53926;DHT22;39836;52.754;6.866;2022-10-14T08:28:52;12.00;81.80
53926;DHT22;39836;52.754;6.866;2022-10-14T08:31:18;12.10;81.80
53926;DHT22;39836;52.754;6.866;2022-10-14T08:33:44;12.00;81.70
53926;DHT22;39836;52.754;6.866;2022-10-14T08:36:10;12.10;81.80
53926;DHT22;39836;52.754;6.866;2022-10-14T08:38:36;12.10;81.80
53926;DHT22;39836;52.754;6.866;2022-10-14T08:44:00;12.20;81.80
53926;DHT22;39836;52.754;6.866;2022-10-14T08:46:49;12.20;81.80
53926;DHT22;39836;52.754;6.866;2022-10-14T08:49:28;12.20;81.80
53926;DHT22;39836;52.754;6.866;2022-10-14T08:52:15;12.30;81.90
53926;DHT22;39836;52.754;6.866;2022-10-14T08:54:45;12.30;81.90
53926;DHT22;39836;52.754;6.866;2022-10-14T08:57:32;12.30;81.80
53926;DHT22;39836;52.754;6.866;2022-10-14T08:59:59;12.40;81.90
53926;DHT22;39836;52.754;6.866;2022-10-14T09:02:45;12.40;81.80
53926;DHT22;39836;52.754;6.866;2022-10-14T09:05:20;12.40;81.80
53926;DHT22;39836;52.754;6.866;2022-10-14T09:07:47;12.40;81.80
53926;DHT22;39836;52.754;6.866;2022-10-14T09:10:39;12.40;81.80
53926;DHT22;39836;52.754;6.866;2022-10-14T09:13:15;12.40;81.90
53926;DHT22;39836;52.754;6.866;2022-10-14T09:15:45;12.40;81.90
53926;DHT22;39836;52.754;6.866;2022-10-14T09:18:19;12.40;82.00
53926;DHT22;39836;52.754;6.866;2022-10-14T09:20:46;12.40;81.80
53926;DHT22;39836;52.754;6.866;2022-10-14T09:23:21;12.50;81.90
53926;DHT22;39836;52.754;6.866;2022-10-14T09:26:10;12.50;81.90
53926;DHT22;39836;52.754;6.866;2022-10-14T09:28:43;12.50;81.90
53926;DHT22;39836;52.754;6.866;2022-10-14T09:31:12;12.60;82.00
53926;DHT22;39836;52.754;6.866;2022-10-14T09:33:38;12.60;81.80
53926;DHT22;39836;52.754;6.866;2022-10-14T09:36:25;12.70;81.90
53926;DHT22;39836;52.754;6.866;2022-10-14T09:38:53;12.70;81.90
53926;DHT22;39836;52.754;6.866;2022-10-14T09:41:24;12.70;82.00
53926;DHT22;39836;52.754;6.866;2022-10-14T09:44:13;12.70;82.00
53926;DHT22;39836;52.754;6.866;2022-10-14T09:46:39;12.70;82.00
53926;DHT22;39836;52.754;6.866;2022-10-14T09:49:14;12.60;82.00
53926;DHT22;39836;52.754;6.866;2022-10-14T09:51:41;12.60;82.00
53926;DHT22;39836;52.754;6.866;2022-10-14T09:54:21;12.60;82.10
53926;DHT22;39836;52.754;6.866;2022-10-14T09:56:47;12.60;82.10
53926;DHT22;39836;52.754;6.866;2022-10-14T09:59:21;12.60;82.20
53926;DHT22;39836;52.754;6.866;2022-10-14T10:01:49;12.60;82.30
53926;DHT22;39836;52.754;6.866;2022-10-14T10:04:35;12.60;82.30
53926;DHT22;39836;52.754;6.866;2022-10-14T10:07:04;12.60;82.30
53926;DHT22;39836;52.754;6.866;2022-10-14T10:09:30;12.60;82.30
53926;DHT22;39836;52.754;6.866;2022-10-14T10:11:56;12.60;82.30
53926;DHT22;39836;52.754;6.866;2022-10-14T10:14:27;12.70;82.40
53926;DHT22;39836;52.754;6.866;2022-10-14T10:17:10;12.70;82.40
53926;DHT22;39836;52.754;6.866;2022-10-14T10:19:48;12.60;82.30
53926;DHT22;39836;52.754;6.866;2022-10-14T10:22:27;12.70;82.40
53926;DHT22;39836;52.754;6.866;2022-10-14T10:27:33;12.70;82.40
53926;DHT22;39836;52.754;6.866;2022-10-14T10:30:20;12.70;82.40
53926;DHT22;39836;52.754;6.866;2022-10-14T10:33:14;12.80;82.40
53926;DHT22;39836;52.754;6.866;2022-10-14T10:38:57;12.80;82.40
53926;DHT22;39836;52.754;6.866;2022-10-14T10:49:04;12.90;82.50
53926;DHT22;39836;52.754;6.866;2022-10-14T10:54:50;12.90;82.50
53926;DHT22;39836;52.754;6.866;2022-10-14T11:00:07;13.00;82.50
53926;DHT22;39836;52.754;6.866;2022-10-14T11:02:52;13.00;82.50
53926;DHT22;39836;52.754;6.866;2022-10-14T11:11:20;13.10;82.60
53926;DHT22;39836;52.754;6.866;2022-10-14T11:19:55;13.30;82.60
53926;DHT22;39836;52.754;6.866;2022-10-14T11:25:25;13.40;82.70
53926;DHT22;39836;52.754;6.866;2022-10-14T11:28:09;13.50;82.70
53926;DHT22;39836;52.754;6.866;2022-10-14T11:33:50;13.50;82.70
53926;DHT22;39836;52.754;6.866;2022-10-14T11:36:31;13.60;82.70
53926;DHT22;39836;52.754;6.866;2022-10-14T11:46:26;13.80;82.70
53926;DHT22;39836;52.754;6.866;2022-10-14T11:49:09;13.80;82.70
53926;DHT22;39836;52.754;6.866;2022-10-14T11:51:42;13.90;82.70
53926;DHT22;39836;52.754;6.866;2022-10-14T11:54:35;13.90;82.70
53926;DHT22;39836;52.754;6.866;2022-10-14T11:57:34;14.00;82.70
53926;DHT22;39836;52.754;6.866;2022-10-14T12:00:12;14.00;82.70
53926;DHT22;39836;52.754;6.866;2022-10-14T12:05:51;14.10;82.70
53926;DHT22;39836;52.754;6.866;2022-10-14T12:08:27;14.10;82.70
53926;DHT22;39836;52.754;6.866;2022-10-14T12:16:39;14.10;82.70
53926;DHT22;39836;52.754;6.866;2022-10-14T12:19:11;14.10;82.70
53926;DHT22;39836;52.754;6.866;2022-10-14T12:21:55;14.10;82.70
53926;DHT22;39836;52.754;6.866;2022-10-14T12:24:25;14.10;82.70
53926;DHT22;39836;52.754;6.866;2022-10-14T12:27:00;14.20;82.70
53926;DHT22;39836;52.754;6.866;2022-10-14T12:29:37;14.20;82.70
53926;DHT22;39836;52.754;6.866;2022-10-14T12:32:07;14.30;82.80
53926;DHT22;39836;52.754;6.866;2022-10-14T12:34:42;14.40;82.80
53926;DHT22;39836;52.754;6.866;2022-10-14T12:39:54;14.70;82.90
53926;DHT22;39836;52.754;6.866;2022-10-14T12:42:54;14.70;82.80
53926;DHT22;39836;52.754;6.866;2022-10-14T12:45:27;14.70;82.80
53926;DHT22;39836;52.754;6.866;2022-10-14T12:50:37;14.80;82.60
53926;DHT22;39836;52.754;6.866;2022-10-14T12:53:26;14.80;82.50
53926;DHT22;39836;52.754;6.866;2022-10-14T12:55:58;14.80;82.50
53926;DHT22;39836;52.754;6.866;2022-10-14T12:58:28;14.80;82.40
53926;DHT22;39836;52.754;6.866;2022-10-14T13:00:58;14.70;82.30
53926;DHT22;39836;52.754;6.866;2022-10-14T13:03:27;14.70;82.30
53926;DHT22;39836;52.754;6.866;2022-10-14T13:11:41;14.70;82.10
53926;DHT22;39836;52.754;6.866;2022-10-14T13:14:31;14.70;82.00
53926;DHT22;39836;52.754;6.866;2022-10-14T13:16:58;14.70;82.00
53926;DHT22;39836;52.754;6.866;2022-10-14T13:22:01;14.70;82.00
53926;DHT22;39836;52.754;6.866;2022-10-14T13:24:31;14.80;82.00
53926;DHT22;39836;52.754;6.866;2022-10-14T13:27:08;14.80;82.00
53926;DHT22;39836;52.754;6.866;2022-10-14T13:30:00;14.80;82.00
53926;DHT22;39836;52.754;6.866;2022-10-14T13:32:41;14.90;82.00
53926;DHT22;39836;52.754;6.866;2022-10-14T13:35:22;14.90;81.90
53926;DHT22;39836;52.754;6.866;2022-10-14T13:38:02;14.90;81.90
53926;DHT22;39836;52.754;6.866;2022-10-14T13:40:35;14.90;81.80
53926;DHT22;39836;52.754;6.866;2022-10-14T13:45:49;14.90;81.80
53926;DHT22;39836;52.754;6.866;2022-10-14T13:48:31;14.90;81.80
53926;DHT22;39836;52.754;6.866;2022-10-14T13:53:58;14.80;81.70
53926;DHT22;39836;52.754;6.866;2022-10-14T13:56:31;14.80;81.70
53926;DHT22;39836;52.754;6.866;2022-10-14T13:58:57;14.70;81.70
53926;DHT22;39836;52.754;6.866;2022-10-14T14:01:30;14.70;81.70
53926;DHT22;39836;52.754;6.866;2022-10-14T14:03:57;14.70;81.70
53926;DHT22;39836;52.754;6.866;2022-10-14T14:06:25;14.70;81.70
53926;DHT22;39836;52.754;6.866;2022-10-14T14:08:57;14.70;81.70
53926;DHT22;39836;52.754;6.866;2022-10-14T14:11:26;14.80;81.80
53926;DHT22;39836;52.754;6.866;2022-10-14T14:16:48;14.70;81.80
53926;DHT22;39836;52.754;6.866;2022-10-14T14:19:24;14.70;81.90
53926;DHT22;39836;52.754;6.866;2022-10-14T14:21:50;14.70;82.00
53926;DHT22;39836;52.754;6.866;2022-10-14T14:24:22;14.70;81.90
53926;DHT22;39836;52.754;6.866;2022-10-14T14:26:52;14.80;81.90
53926;DHT22;39836;52.754;6.866;2022-10-14T14:29:23;14.80;81.90
53926;DHT22;39836;52.754;6.866;2022-10-14T14:31:50;14.80;81.90
53926;DHT22;39836;52.754;6.866;2022-10-14T14:34:18;14.80;81.90
53926;DHT22;39836;52.754;6.866;2022-10-14T14:36:45;14.80;81.90
53926;DHT22;39836;52.754;6.866;2022-10-14T14:41:51;14.80;82.00
53926;DHT22;39836;52.754;6.866;2022-10-14T14:44:20;14.80;82.00
53926;DHT22;39836;52.754;6.866;2022-10-14T14:46:47;14.70;81.90
53926;DHT22;39836;52.754;6.866;2022-10-14T14:49:17;14.70;82.00
53926;DHT22;39836;52.754;6.866;2022-10-14T14:51:46;14.70;82.10
53926;DHT22;39836;52.754;6.866;2022-10-14T14:54:16;14.70;82.20
53926;DHT22;39836;52.754;6.866;2022-10-14T14:56:53;14.60;82.10
53926;DHT22;39836;52.754;6.866;2022-10-14T14:59:37;14.60;82.10
53926;DHT22;39836;52.754;6.866;2022-10-14T15:02:12;14.60;82.30
53926;DHT22;39836;52.754;6.866;2022-10-14T15:04:39;14.60;82.30
53926;DHT22;39836;52.754;6.866;2022-10-14T15:07:11;14.60;82.40
53926;DHT22;39836;52.754;6.866;2022-10-14T15:09:44;14.60;82.40
53926;DHT22;39836;52.754;6.866;2022-10-14T15:14:49;14.70;82.40
53926;DHT22;39836;52.754;6.866;2022-10-14T15:17:26;14.60;82.40
53926;DHT22;39836;52.754;6.866;2022-10-14T15:19:54;14.60;82.50
53926;DHT22;39836;52.754;6.866;2022-10-14T15:27:45;14.60;82.50
53926;DHT22;39836;52.754;6.866;2022-10-14T15:32:49;14.60;82.50
53926;DHT22;39836;52.754;6.866;2022-10-14T15:35:17;14.60;82.50
53926;DHT22;39836;52.754;6.866;2022-10-14T15:37:44;14.60;82.60
53926;DHT22;39836;52.754;6.866;2022-10-14T15:40:15;14.60;82.50
53926;DHT22;39836;52.754;6.866;2022-10-14T15:42:42;14.50;82.50
53926;DHT22;39836;52.754;6.866;2022-10-14T15:45:08;14.50;82.50
53926;DHT22;39836;52.754;6.866;2022-10-14T15:47:34;14.50;82.40
53926;DHT22;39836;52.754;6.866;2022-10-14T15:50:04;14.50;82.50
53926;DHT22;39836;52.754;6.866;2022-10-14T15:52:30;14.50;82.50
53926;DHT22;39836;52.754;6.866;2022-10-14T15:54:57;14.50;82.50
53926;DHT22;39836;52.754;6.866;2022-10-14T15:57:23;14.50;82.50
53926;DHT22;39836;52.754;6.866;2022-10-14T15:59:49;14.50;82.40
53926;DHT22;39836;52.754;6.866;2022-10-14T16:02:19;14.50;82.60
53926;DHT22;39836;52.754;6.866;2022-10-14T16:04:46;14.40;82.50
53926;DHT22;39836;52.754;6.866;2022-10-14T16:07:15;14.40;82.50
53926;DHT22;39836;52.754;6.866;2022-10-14T16:09:40;14.40;82.50
53926;DHT22;39836;52.754;6.866;2022-10-14T16:12:13;14.40;82.60
53926;DHT22;39836;52.754;6.866;2022-10-14T16:14:39;14.40;82.50
53926;DHT22;39836;52.754;6.866;2022-10-14T16:17:05;14.40;82.60
53926;DHT22;39836;52.754;6.866;2022-10-14T16:19:31;14.40;82.50
53926;DHT22;39836;52.754;6.866;2022-10-14T16:21:57;14.40;82.60
53926;DHT22;39836;52.754;6.866;2022-10-14T16:24:22;14.40;82.60
53926;DHT22;39836;52.754;6.866;2022-10-14T16:26:52;14.40;82.60
53926;DHT22;39836;52.754;6.866;2022-10-14T16:29:18;14.40;82.60
53926;DHT22;39836;52.754;6.866;2022-10-14T16:31:48;14.30;82.60
53926;DHT22;39836;52.754;6.866;2022-10-14T16:34:19;14.30;82.60
53926;DHT22;39836;52.754;6.866;2022-10-14T16:36:46;14.30;82.70
53926;DHT22;39836;52.754;6.866;2022-10-14T16:39:14;14.30;82.70
53926;DHT22;39836;52.754;6.866;2022-10-14T16:41:40;14.30;82.70
53926;DHT22;39836;52.754;6.866;2022-10-14T16:44:06;14.30;82.70
53926;DHT22;39836;52.754;6.866;2022-10-14T16:46:32;14.30;82.70
53926;DHT22;39836;52.754;6.866;2022-10-14T16:49:17;14.30;82.70
53926;DHT22;39836;52.754;6.866;2022-10-14T16:51:43;14.30;82.70
53926;DHT22;39836;52.754;6.866;2022-10-14T16:54:10;14.30;82.70
53926;DHT22;39836;52.754;6.866;2022-10-14T16:56:35;14.30;82.70
53926;DHT22;39836;52.754;6.866;2022-10-14T16:59:22;14.30;82.80
53926;DHT22;39836;52.754;6.866;2022-10-14T17:01:48;14.20;82.70
53926;DHT22;39836;52.754;6.866;2022-10-14T17:04:15;14.30;82.70
53926;DHT22;39836;52.754;6.866;2022-10-14T17:06:44;14.30;82.70
53926;DHT22;39836;52.754;6.866;2022-10-14T17:09:10;14.30;82.70
53926;DHT22;39836;52.754;6.866;2022-10-14T17:11:36;14.30;82.70
53926;DHT22;39836;52.754;6.866;2022-10-14T17:14:03;14.30;82.70
53926;DHT22;39836;52.754;6.866;2022-10-14T17:16:29;14.30;82.70
53926;DHT22;39836;52.754;6.866;2022-10-14T17:18:55;14.30;82.80
53926;DHT22;39836;52.754;6.866;2022-10-14T17:21:21;14.30;82.70
53926;DHT22;39836;52.754;6.866;2022-10-14T17:23:48;14.30;82.70
53926;DHT22;39836;52.754;6.866;2022-10-14T17:26:18;14.30;82.70
53926;DHT22;39836;52.754;6.866;2022-10-14T17:28:45;14.30;82.70
53926;DHT22;39836;52.754;6.866;2022-10-14T17:31:13;14.30;82.70
53926;DHT22;39836;52.754;6.866;2022-10-14T17:33:41;14.30;82.70
53926;DHT22;39836;52.754;6.866;2022-10-14T17:36:07;14.30;82.70
53926;DHT22;39836;52.754;6.866;2022-10-14T17:38:38;14.20;82.70
53926;DHT22;39836;52.754;6.866;2022-10-14T17:41:06;14.30;82.70